createdAt,value
2017-08-04T00:01:03.028Z,60.80
2017-08-04T00:03:29.110Z,61.00
2017-08-04T00:05:55.198Z,61.00
2017-08-04T00:08:21.286Z,61.30
2017-08-04T00:10:47.346Z,61.60
2017-08-04T00:13:13.505Z,61.50
2017-08-04T00:15:39.567Z,61.80
2017-08-04T00:18:05.651Z,61.80
2017-08-04T00:20:31.732Z,62.00
2017-08-04T00:22:57.811Z,62.60
2017-08-04T00:25:24.822Z,62.50
2017-08-04T00:27:50.899Z,62.50
2017-08-04T00:30:16.970Z,62.80
2017-08-04T00:32:43.052Z,62.90
2017-08-04T00:35:09.107Z,62.60
2017-08-04T00:37:35.219Z,62.90
2017-08-04T00:40:01.275Z,63.10
2017-08-04T00:42:27.330Z,63.00
2017-08-04T00:44:54.337Z,63.80
2017-08-04T00:47:20.401Z,63.80
2017-08-04T00:49:47.215Z,63.60
2017-08-04T00:52:13.270Z,63.60
2017-08-04T00:54:40.098Z,64.00
2017-08-04T00:57:06.158Z,64.00
2017-08-04T00:59:32.235Z,64.40
2017-08-04T01:01:58.341Z,64.40
2017-08-04T01:04:24.445Z,64.50
2017-08-04T01:06:50.519Z,64.40
2017-08-04T01:09:16.588Z,64.60
2017-08-04T01:11:42.645Z,64.70
2017-08-04T01:14:08.731Z,64.80
2017-08-04T01:16:35.012Z,64.90
2017-08-04T01:19:01.104Z,65.00
2017-08-04T01:21:27.341Z,65.80
2017-08-04T01:23:53.463Z,65.40
2017-08-04T01:26:19.535Z,64.40
2017-08-04T01:28:46.364Z,63.20
2017-08-04T01:31:12.436Z,63.10
2017-08-04T01:33:38.547Z,63.00
2017-08-04T01:36:04.636Z,63.40
2017-08-04T01:38:30.854Z,62.70
2017-08-04T01:40:56.990Z,62.40
2017-08-04T01:43:23.079Z,62.40
2017-08-04T01:45:49.166Z,62.60
2017-08-04T01:48:15.250Z,62.40
2017-08-04T01:50:41.392Z,62.80
2017-08-04T01:53:07.507Z,62.90
2017-08-04T01:55:33.579Z,63.30
2017-08-04T01:57:59.683Z,63.50
2017-08-04T02:00:26.514Z,63.70
2017-08-04T02:02:52.601Z,63.60
2017-08-04T02:05:18.671Z,63.70
2017-08-04T02:07:44.768Z,63.60
2017-08-04T02:10:10.841Z,63.60
2017-08-04T02:12:36.927Z,63.50
2017-08-04T02:15:02.996Z,63.30
2017-08-04T02:17:29.086Z,63.10
2017-08-04T02:19:55.235Z,63.30
2017-08-04T02:22:22.066Z,63.40
2017-08-04T02:24:48.874Z,64.30
2017-08-04T02:27:14.970Z,63.60
2017-08-04T02:29:41.022Z,63.70
2017-08-04T02:32:07.123Z,63.80
2017-08-04T02:34:33.186Z,64.00
2017-08-04T02:36:59.385Z,64.10
2017-08-04T02:39:25.446Z,64.10
2017-08-04T02:41:51.534Z,64.00
2017-08-04T02:44:17.625Z,64.20
2017-08-04T02:46:43.687Z,64.00
2017-08-04T02:49:09.781Z,63.30
2017-08-04T02:51:35.855Z,62.80
2017-08-04T02:54:01.945Z,62.50
2017-08-04T02:56:28.006Z,62.70
2017-08-04T02:58:54.081Z,62.60
2017-08-04T03:01:20.160Z,62.70
2017-08-04T03:03:46.235Z,62.70
2017-08-04T03:06:12.326Z,62.90
2017-08-04T03:08:38.422Z,63.00
2017-08-04T03:11:04.486Z,63.10
2017-08-04T03:13:30.646Z,63.30
2017-08-04T03:15:56.714Z,63.50
2017-08-04T03:18:22.774Z,63.70
2017-08-04T03:20:48.846Z,64.00
2017-08-04T03:23:14.903Z,64.20
2017-08-04T03:25:40.970Z,64.30
2017-08-04T03:28:07.027Z,64.40
2017-08-04T03:30:33.114Z,64.50
2017-08-04T03:32:59.184Z,64.50
2017-08-04T03:35:25.269Z,64.50
2017-08-04T03:37:51.342Z,64.30
2017-08-04T03:40:17.540Z,64.40
2017-08-04T03:42:43.606Z,64.30
2017-08-04T03:45:09.686Z,64.20
2017-08-04T03:47:35.783Z,64.30
2017-08-04T03:50:01.860Z,64.30
2017-08-04T03:52:27.979Z,64.20
2017-08-04T03:54:54.180Z,64.10
2017-08-04T03:57:20.270Z,64.10
2017-08-04T03:59:46.358Z,63.80
2017-08-04T04:02:12.431Z,63.50
2017-08-04T04:04:38.520Z,63.40
2017-08-04T04:07:04.623Z,63.10
2017-08-04T04:09:30.739Z,63.20
2017-08-04T04:11:56.835Z,62.90
2017-08-04T04:14:22.907Z,62.80
2017-08-04T04:16:48.971Z,63.40
2017-08-04T04:19:15.058Z,62.40
2017-08-04T04:21:41.166Z,62.20
2017-08-04T04:24:07.276Z,62.20
2017-08-04T04:26:33.371Z,62.10
2017-08-04T04:28:59.458Z,61.70
2017-08-04T04:31:25.527Z,61.90
2017-08-04T04:33:51.586Z,62.00
2017-08-04T04:36:17.660Z,61.60
2017-08-04T04:38:44.483Z,61.80
2017-08-04T04:41:10.557Z,61.70
2017-08-04T04:43:36.618Z,61.70
2017-08-04T04:46:02.703Z,61.60
2017-08-04T04:48:28.770Z,61.50
2017-08-04T04:53:30.594Z,61.70
2017-08-04T04:55:56.782Z,61.90
2017-08-04T04:58:22.872Z,62.00
2017-08-04T05:00:48.942Z,62.30
2017-08-04T05:03:15.023Z,62.60
2017-08-04T05:05:41.106Z,62.00
2017-08-04T05:08:07.922Z,62.40
2017-08-04T05:10:33.974Z,62.40
2017-08-04T05:13:00.054Z,62.70
2017-08-04T05:15:26.134Z,62.90
2017-08-04T05:17:52.207Z,63.00
2017-08-04T05:20:18.282Z,62.90
2017-08-04T05:22:44.513Z,62.50
2017-08-04T05:25:10.602Z,62.70
2017-08-04T05:27:36.703Z,62.00
2017-08-04T05:30:02.823Z,61.70
2017-08-04T05:32:28.898Z,61.40
2017-08-04T05:34:55.739Z,60.70
2017-08-04T05:37:22.554Z,60.50
2017-08-04T05:39:48.636Z,60.40
2017-08-04T05:42:14.687Z,60.00
2017-08-04T05:44:40.766Z,59.80
2017-08-04T05:47:06.839Z,60.00
2017-08-04T05:49:32.922Z,60.00
2017-08-04T05:51:59.010Z,60.20
2017-08-04T05:54:25.097Z,60.50
2017-08-04T05:56:51.190Z,61.10
2017-08-04T05:59:17.270Z,60.90
2017-08-04T06:01:43.352Z,61.20
2017-08-04T06:04:09.423Z,61.00
2017-08-04T06:06:35.507Z,60.80
2017-08-04T06:09:01.571Z,60.60
2017-08-04T06:11:27.651Z,61.00
2017-08-04T06:13:53.722Z,61.20
2017-08-04T06:16:19.803Z,61.00
2017-08-04T06:18:45.870Z,61.10
2017-08-04T06:21:11.945Z,60.60
2017-08-04T06:23:38.031Z,60.50
2017-08-04T06:26:04.134Z,60.20
2017-08-04T06:28:30.214Z,60.10
2017-08-04T06:30:56.327Z,60.90
2017-08-04T06:33:22.411Z,60.40
2017-08-04T06:35:48.488Z,60.20
2017-08-04T06:38:14.583Z,60.20
2017-08-04T06:40:40.670Z,59.90
2017-08-04T06:43:06.758Z,59.90
2017-08-04T06:45:33.563Z,60.50
2017-08-04T06:47:59.659Z,60.40
2017-08-04T06:50:38.082Z,60.20
2017-08-04T06:53:26.254Z,60.40
2017-08-04T06:56:14.448Z,60.50
2017-08-04T06:58:40.519Z,60.00
2017-08-04T07:01:06.601Z,59.60
2017-08-04T07:03:32.673Z,59.70
2017-08-04T07:05:58.756Z,60.00
2017-08-04T07:08:24.843Z,59.40
2017-08-04T07:10:51.669Z,59.10
2017-08-04T07:13:17.725Z,59.10
2017-08-04T07:15:43.812Z,59.40
2017-08-04T07:18:09.886Z,59.20
2017-08-04T07:20:35.970Z,59.30
2017-08-04T07:23:02.034Z,58.60
2017-08-04T07:25:28.115Z,58.90
2017-08-04T07:27:54.175Z,58.40
2017-08-04T07:30:20.376Z,58.50
2017-08-04T07:32:46.427Z,59.20
2017-08-04T07:35:12.491Z,58.10
2017-08-04T07:37:38.562Z,57.80
2017-08-04T07:40:04.627Z,57.60
2017-08-04T07:42:30.718Z,57.80
2017-08-04T07:44:57.518Z,58.00
2017-08-04T07:47:23.599Z,57.90
2017-08-04T07:49:49.657Z,57.70
2017-08-04T07:52:15.735Z,58.30
2017-08-04T07:54:41.818Z,57.50
2017-08-04T07:57:07.906Z,57.30
2017-08-04T07:59:33.978Z,57.10
2017-08-04T08:02:00.406Z,57.50
2017-08-04T08:04:26.488Z,57.60
2017-08-04T08:06:52.559Z,56.80
2017-08-04T08:09:18.646Z,56.00
2017-08-04T08:11:44.711Z,56.70
2017-08-04T08:14:10.790Z,56.50
2017-08-04T08:16:36.852Z,56.20
2017-08-04T08:19:03.096Z,55.90
2017-08-04T08:21:29.150Z,56.70
2017-08-04T08:23:55.213Z,56.60
2017-08-04T08:26:21.279Z,56.40
2017-08-04T08:28:47.470Z,56.10
2017-08-04T08:31:13.524Z,56.90
2017-08-04T08:33:39.580Z,55.30
2017-08-04T08:36:05.654Z,55.20
2017-08-04T08:38:31.759Z,56.50
2017-08-04T08:40:57.826Z,54.50
2017-08-04T08:43:24.654Z,54.70
2017-08-04T08:45:50.705Z,54.70
2017-08-04T08:48:16.780Z,54.50
2017-08-04T08:50:42.829Z,53.90
2017-08-04T08:53:08.903Z,54.90
2017-08-04T08:55:34.959Z,53.60
2017-08-04T08:58:01.043Z,54.60
2017-08-04T09:00:27.109Z,53.60
2017-08-04T09:02:53.393Z,52.80
2017-08-04T09:05:19.447Z,53.80
2017-08-04T09:07:45.510Z,53.10
2017-08-04T09:10:11.607Z,53.00
2017-08-04T09:12:37.686Z,52.90
2017-08-04T09:15:03.764Z,52.10
2017-08-04T09:17:29.825Z,52.10
2017-08-04T09:19:56.634Z,52.60
2017-08-04T09:22:22.689Z,52.50
2017-08-04T09:24:48.765Z,52.80
2017-08-04T09:27:14.836Z,53.20
2017-08-04T09:29:41.719Z,53.20
2017-08-04T09:32:07.785Z,53.00
2017-08-04T09:34:33.856Z,52.30
2017-08-04T09:36:59.905Z,52.50
2017-08-04T09:39:26.031Z,53.10
2017-08-04T09:41:52.339Z,50.70
2017-08-04T09:44:18.421Z,52.00
2017-08-04T09:46:45.229Z,52.00
2017-08-04T09:49:11.307Z,51.50
2017-08-04T09:51:37.370Z,52.20
2017-08-04T09:54:03.458Z,53.20
2017-08-04T09:56:29.531Z,53.40
2017-08-04T09:58:56.323Z,51.80
2017-08-04T10:01:23.147Z,52.30
2017-08-04T10:03:49.235Z,52.20
2017-08-04T10:06:15.329Z,51.40
2017-08-04T10:08:41.449Z,51.20
2017-08-04T10:11:07.524Z,51.50
2017-08-04T10:13:33.578Z,50.80
2017-08-04T10:15:59.923Z,50.80
2017-08-04T10:18:26.731Z,49.60
2017-08-04T10:20:52.807Z,49.60
2017-08-04T10:23:18.883Z,49.70
2017-08-04T10:25:44.974Z,49.70
2017-08-04T10:28:11.063Z,49.40
2017-08-04T10:30:37.115Z,49.50
2017-08-04T10:33:03.204Z,49.80
2017-08-04T10:35:30.006Z,48.90
2017-08-04T10:37:56.106Z,48.90
2017-08-04T10:40:22.167Z,50.00
2017-08-04T10:42:48.258Z,49.10
2017-08-04T10:45:14.326Z,49.50
2017-08-04T10:47:40.414Z,48.60
2017-08-04T10:50:06.472Z,48.90
2017-08-04T10:52:32.601Z,47.80
2017-08-04T10:54:58.675Z,46.90
2017-08-04T10:57:24.779Z,47.00
2017-08-04T10:59:50.835Z,47.80
2017-08-04T11:02:16.899Z,47.30
2017-08-04T11:04:43.035Z,48.70
2017-08-04T11:07:09.847Z,48.30
2017-08-04T11:09:35.918Z,48.20
2017-08-04T11:12:02.727Z,48.70
2017-08-04T11:14:28.806Z,48.70
2017-08-04T11:16:54.862Z,49.20
2017-08-04T11:19:20.951Z,48.40
2017-08-04T11:21:47.025Z,49.40
2017-08-04T11:24:13.110Z,48.80
2017-08-04T11:26:39.186Z,48.10
2017-08-04T11:29:08.148Z,46.10
2017-08-04T11:31:34.203Z,47.00
2017-08-04T11:34:00.294Z,47.70
2017-08-04T11:36:26.394Z,46.80
2017-08-04T11:38:52.515Z,47.20
2017-08-04T11:41:18.572Z,47.30
2017-08-04T11:43:44.667Z,47.70
2017-08-04T11:46:10.722Z,48.30
2017-08-04T11:48:36.800Z,48.20
2017-08-04T11:51:03.659Z,47.80
2017-08-04T11:53:29.738Z,47.80
2017-08-04T11:55:55.822Z,47.50
2017-08-04T11:58:21.884Z,48.00
2017-08-04T12:00:47.974Z,47.50
2017-08-04T12:03:14.048Z,47.70
2017-08-04T12:05:40.880Z,48.40
2017-08-04T12:08:06.926Z,48.20
2017-08-04T12:10:33.745Z,47.00
2017-08-04T12:12:59.810Z,46.90
2017-08-04T12:15:25.887Z,47.40
2017-08-04T12:17:51.970Z,46.60
2017-08-04T12:20:18.053Z,46.70
2017-08-04T12:22:44.906Z,47.60
2017-08-04T12:25:11.725Z,47.10
2017-08-04T12:27:37.790Z,47.10
2017-08-04T12:30:03.922Z,47.20
2017-08-04T12:32:29.978Z,47.50
2017-08-04T12:34:56.076Z,46.80
2017-08-04T12:37:22.168Z,48.00
2017-08-04T12:39:48.242Z,48.40
2017-08-04T12:42:14.310Z,48.50
2017-08-04T12:44:40.398Z,49.00
2017-08-04T12:47:08.190Z,49.50
2017-08-04T12:49:34.570Z,50.40
2017-08-04T12:52:00.631Z,50.40
2017-08-04T12:54:26.719Z,50.50
2017-08-04T12:56:52.775Z,50.20
2017-08-04T12:59:18.818Z,50.20
2017-08-04T13:01:44.887Z,49.40
2017-08-04T13:04:10.944Z,48.70
2017-08-04T13:06:37.012Z,48.70
2017-08-04T13:09:03.862Z,48.00
2017-08-04T13:11:30.671Z,47.80
2017-08-04T13:13:56.731Z,47.70
2017-08-04T13:16:23.538Z,45.70
2017-08-04T13:18:49.594Z,45.70
2017-08-04T13:21:15.670Z,46.50
2017-08-04T13:23:41.726Z,46.80
2017-08-04T13:26:07.818Z,47.50
2017-08-04T13:28:33.866Z,46.60
2017-08-04T13:31:00.011Z,46.70
2017-08-04T13:33:26.798Z,48.20
2017-08-04T13:35:52.877Z,48.20
2017-08-04T13:38:25.917Z,46.70
2017-08-04T13:40:51.996Z,46.60
2017-08-04T13:43:18.827Z,46.40
2017-08-04T13:45:45.623Z,46.00
2017-08-04T13:48:11.690Z,46.40
2017-08-04T13:50:37.774Z,46.60
2017-08-04T13:53:04.093Z,46.40
2017-08-04T13:55:30.146Z,46.20
2017-08-04T13:57:56.210Z,47.10
2017-08-04T14:00:23.006Z,46.50
2017-08-04T14:02:49.082Z,46.50
2017-08-04T14:05:15.130Z,46.20
2017-08-04T14:07:41.200Z,47.50
2017-08-04T14:10:07.287Z,47.70
2017-08-04T14:12:33.358Z,48.20
2017-08-04T14:15:00.187Z,47.50
2017-08-04T14:17:26.234Z,47.50
2017-08-04T14:19:53.041Z,47.70
2017-08-04T14:22:19.135Z,47.60
2017-08-04T14:24:45.191Z,46.70
2017-08-04T14:27:11.239Z,46.80
2017-08-04T14:29:37.314Z,45.10
2017-08-04T14:32:03.390Z,45.40
2017-08-04T14:34:29.463Z,45.80
2017-08-04T14:36:55.517Z,46.70
2017-08-04T14:39:21.586Z,46.40
2017-08-04T14:41:47.630Z,47.00
2017-08-04T14:44:13.681Z,46.30
2017-08-04T14:46:39.730Z,46.40
2017-08-04T14:49:05.806Z,46.50
2017-08-04T14:51:31.846Z,46.30
2017-08-04T14:53:57.914Z,45.60
2017-08-04T14:56:24.702Z,45.40
2017-08-04T14:58:50.750Z,45.40
2017-08-04T15:01:16.815Z,45.50
2017-08-04T15:03:43.602Z,44.40
2017-08-04T15:06:09.670Z,44.40
2017-08-04T15:08:36.462Z,44.20
2017-08-04T15:11:02.551Z,44.20
2017-08-04T15:13:28.595Z,45.00
2017-08-04T15:15:54.674Z,45.10
2017-08-04T15:18:20.722Z,45.80
2017-08-04T15:20:46.811Z,47.00
2017-08-04T15:23:12.895Z,47.90
2017-08-04T15:25:38.955Z,47.90
2017-08-04T15:28:05.010Z,48.00
2017-08-04T15:30:31.825Z,49.20
2017-08-04T15:32:58.323Z,49.20
2017-08-04T15:35:24.404Z,49.00
2017-08-04T15:37:51.218Z,49.40
2017-08-04T15:40:17.282Z,49.40
2017-08-04T15:42:44.070Z,49.20
2017-08-04T15:45:10.155Z,49.20
2017-08-04T15:47:36.226Z,50.20
2017-08-04T15:50:02.286Z,50.70
2017-08-04T15:52:29.101Z,51.70
2017-08-04T15:54:55.150Z,51.70
2017-08-04T15:57:21.953Z,51.40
2017-08-04T15:59:47.994Z,51.00
2017-08-04T16:02:14.083Z,48.40
2017-08-04T16:04:40.145Z,46.50
2017-08-04T16:07:06.259Z,44.90
2017-08-04T16:09:32.463Z,44.90
2017-08-04T16:11:58.559Z,46.90
2017-08-04T16:14:25.378Z,47.20
2017-08-04T16:16:51.462Z,47.10
2017-08-04T16:19:17.508Z,48.20
2017-08-04T16:21:43.610Z,46.10
2017-08-04T16:24:09.668Z,44.40
2017-08-04T16:26:35.722Z,42.80
2017-08-04T16:29:01.791Z,42.40
2017-08-04T16:31:27.899Z,42.40
2017-08-04T16:33:53.983Z,42.50
2017-08-04T16:36:20.787Z,41.10
2017-08-04T16:38:46.920Z,41.00
2017-08-04T16:41:12.992Z,40.10
2017-08-04T16:43:39.070Z,40.20
2017-08-04T16:46:05.172Z,40.80
2017-08-04T16:48:31.257Z,40.30
2017-08-04T16:50:58.068Z,42.20
2017-08-04T16:53:24.133Z,42.20
2017-08-04T16:55:50.186Z,43.20
2017-08-04T16:58:16.274Z,43.00
2017-08-04T17:00:42.339Z,43.90
2017-08-04T17:03:08.443Z,44.70
2017-08-04T17:05:34.553Z,43.90
2017-08-04T17:08:01.377Z,42.70
2017-08-04T17:10:27.466Z,42.70
2017-08-04T17:12:53.523Z,42.30
2017-08-04T17:15:19.607Z,42.90
2017-08-04T17:17:45.675Z,42.80
2017-08-04T17:20:11.759Z,42.40
2017-08-04T17:22:37.818Z,42.70
2017-08-04T17:25:03.893Z,44.10
2017-08-04T17:27:29.963Z,45.60
2017-08-04T17:29:56.034Z,46.70
2017-08-04T17:32:22.088Z,47.20
2017-08-04T17:34:48.185Z,48.00
2017-08-04T17:37:14.262Z,47.90
2017-08-04T17:39:40.341Z,48.10
2017-08-04T17:42:06.404Z,47.20
2017-08-04T17:44:32.482Z,48.30
2017-08-04T17:46:58.537Z,48.60
2017-08-04T17:49:24.598Z,48.50
2017-08-04T17:51:50.710Z,48.90
2017-08-04T17:54:16.787Z,49.10
2017-08-04T17:56:42.874Z,49.80
2017-08-04T17:59:09.047Z,49.80
2017-08-04T18:01:35.119Z,49.80
2017-08-04T18:04:01.170Z,50.20
2017-08-04T18:06:27.242Z,50.50
2017-08-04T18:08:53.319Z,51.20
2017-08-04T18:11:19.418Z,51.40
2017-08-04T18:13:45.480Z,51.60
2017-08-04T18:16:11.546Z,52.40
2017-08-04T18:18:37.610Z,51.70
2017-08-04T18:21:04.444Z,52.30
2017-08-04T18:23:31.250Z,52.40
2017-08-04T18:25:57.343Z,52.40
2017-08-04T18:28:23.407Z,52.70
2017-08-04T18:30:49.502Z,52.60
2017-08-04T18:33:15.546Z,52.80
2017-08-04T18:35:41.630Z,53.00
2017-08-04T18:38:07.684Z,53.30
2017-08-04T18:40:33.762Z,53.30
2017-08-04T18:42:59.822Z,53.70
2017-08-04T18:45:25.914Z,53.90
2017-08-04T18:47:52.709Z,54.20
2017-08-04T18:50:18.782Z,54.10
2017-08-04T18:52:44.847Z,55.10
2017-08-04T18:55:10.926Z,54.80
2017-08-04T18:57:37.732Z,55.30
2017-08-04T19:00:03.778Z,55.20
2017-08-04T19:02:29.892Z,55.40
2017-08-04T19:04:55.999Z,55.70
2017-08-04T19:07:22.082Z,55.90
2017-08-04T19:09:48.149Z,56.30
2017-08-04T19:12:14.254Z,56.50
2017-08-04T19:14:40.343Z,56.90
2017-08-04T19:17:06.416Z,57.10
2017-08-04T19:19:32.497Z,57.40
2017-08-04T19:21:59.551Z,57.80
2017-08-04T19:24:26.742Z,57.80
2017-08-04T19:26:53.279Z,58.10
2017-08-04T19:29:19.367Z,58.30
2017-08-04T19:31:45.467Z,58.40
2017-08-04T19:34:11.658Z,58.70
2017-08-04T19:36:37.741Z,58.90
2017-08-04T19:39:04.020Z,59.10
2017-08-04T19:41:30.103Z,59.50
2017-08-04T19:43:56.201Z,59.60
2017-08-04T19:46:22.434Z,59.80
2017-08-04T19:48:49.329Z,60.00
2017-08-04T19:51:15.407Z,60.20
2017-08-04T19:53:42.571Z,60.50
2017-08-04T19:56:08.719Z,60.50
2017-08-04T19:58:34.771Z,60.80
2017-08-04T20:01:00.838Z,60.90
2017-08-04T20:03:26.990Z,61.20
2017-08-04T20:05:53.064Z,61.30
2017-08-04T20:08:19.167Z,61.20
2017-08-04T20:10:45.270Z,61.40
2017-08-04T20:13:11.350Z,61.60
2017-08-04T20:15:38.158Z,61.60
2017-08-04T20:18:04.251Z,61.60
2017-08-04T20:20:30.335Z,61.50
2017-08-04T20:22:56.411Z,61.50
2017-08-04T20:25:22.474Z,61.60
2017-08-04T20:27:48.573Z,61.40
2017-08-04T20:30:14.642Z,61.50
2017-08-04T20:32:41.504Z,61.70
2017-08-04T20:35:07.571Z,61.60
2017-08-04T20:37:33.702Z,61.60
2017-08-04T20:40:01.237Z,62.00
2017-08-04T20:42:27.322Z,61.80
2017-08-04T20:44:54.132Z,62.10
2017-08-04T20:47:20.239Z,62.00
2017-08-04T20:49:46.306Z,62.00
2017-08-04T20:52:13.105Z,62.90
2017-08-04T20:54:39.201Z,62.20
2017-08-04T20:57:05.283Z,62.20
2017-08-04T20:59:32.375Z,63.10
2017-08-04T21:01:58.452Z,63.00
2017-08-04T21:04:24.534Z,63.10
2017-08-04T21:06:50.595Z,63.30
2017-08-04T21:09:16.698Z,63.40
2017-08-04T21:11:42.758Z,63.50
2017-08-04T21:14:08.846Z,63.30
2017-08-04T21:16:35.269Z,63.40
2017-08-04T21:19:01.382Z,63.30
2017-08-04T21:21:27.446Z,63.50
2017-08-04T21:23:53.540Z,63.70
2017-08-04T21:26:19.608Z,63.80
2017-08-04T21:28:45.694Z,63.90
2017-08-04T21:31:11.756Z,64.40
2017-08-04T21:33:37.838Z,65.00
2017-08-04T21:36:03.895Z,65.50
2017-08-04T21:38:29.967Z,65.90
2017-08-04T21:40:56.132Z,66.30
2017-08-04T21:43:22.215Z,66.60
2017-08-04T21:45:49.018Z,66.90
2017-08-04T21:48:15.085Z,66.90
2017-08-04T21:50:41.929Z,67.50
2017-08-04T21:53:08.022Z,67.40
2017-08-04T21:55:34.091Z,67.40
2017-08-04T21:58:00.216Z,67.60
2017-08-04T22:00:26.298Z,67.60
2017-08-04T22:02:52.403Z,67.90
2017-08-04T22:05:18.536Z,68.00
2017-08-04T22:07:44.621Z,68.20
2017-08-04T22:10:10.734Z,68.40
2017-08-04T22:12:36.827Z,68.60
2017-08-04T22:15:02.899Z,69.00
2017-08-04T22:17:28.977Z,69.00
2017-08-04T22:19:55.043Z,69.10
2017-08-04T22:22:21.116Z,69.40
2017-08-04T22:24:47.202Z,69.50
2017-08-04T22:27:13.275Z,69.60
2017-08-04T22:29:39.349Z,69.80
2017-08-04T22:32:05.402Z,70.00
2017-08-04T22:34:32.297Z,69.90
2017-08-04T22:36:58.367Z,69.90
2017-08-04T22:39:24.445Z,69.60
2017-08-04T22:41:50.524Z,69.40
2017-08-04T22:44:16.643Z,69.20
2017-08-04T22:46:42.728Z,69.10
2017-08-04T22:49:08.815Z,69.00
2017-08-04T22:51:34.873Z,69.10
2017-08-04T22:54:00.983Z,68.90
2017-08-04T22:56:27.797Z,68.90
2017-08-04T22:58:53.867Z,68.90
2017-08-04T23:01:20.026Z,69.00
2017-08-04T23:03:46.123Z,69.00
2017-08-04T23:06:12.200Z,69.00
2017-08-04T23:08:38.254Z,69.10
2017-08-04T23:11:05.091Z,69.20
2017-08-04T23:13:31.899Z,69.30
2017-08-04T23:15:57.991Z,69.20
2017-08-04T23:18:24.062Z,69.00
2017-08-04T23:20:50.141Z,69.00
2017-08-04T23:23:16.236Z,69.20
2017-08-04T23:25:43.070Z,69.20
2017-08-04T23:28:09.136Z,69.10
2017-08-04T23:30:35.321Z,69.50
2017-08-04T23:33:02.126Z,69.90
2017-08-04T23:35:28.211Z,69.70
2017-08-04T23:37:54.281Z,69.70
2017-08-04T23:40:20.388Z,69.80
2017-08-04T23:42:46.446Z,69.80
2017-08-04T23:45:12.518Z,69.90
2017-08-04T23:47:38.734Z,70.00
2017-08-04T23:50:04.811Z,69.90
2017-08-04T23:52:30.880Z,69.90
2017-08-04T23:54:56.943Z,70.20
2017-08-04T23:57:23.038Z,70.30
2017-08-04T23:59:49.094Z,70.50
